createdAt,value
2018-05-31T00:02:20.098Z,94.10
2018-05-31T00:04:47.074Z,93.90
2018-05-31T00:07:13.775Z,94.10
2018-05-31T00:09:40.053Z,94.30
2018-05-31T00:12:07.126Z,94.10
2018-05-31T00:14:33.495Z,94.60
2018-05-31T00:16:59.823Z,94.00
2018-05-31T00:19:26.121Z,93.90
2018-05-31T00:21:53.124Z,93.60
2018-05-31T00:24:19.761Z,93.50
2018-05-31T00:26:46.437Z,93.60
2018-05-31T00:29:12.707Z,93.70
2018-05-31T00:31:39.392Z,94.20
2018-05-31T00:34:06.452Z,94.60
2018-05-31T00:36:32.748Z,94.80
2018-05-31T00:38:59.027Z,94.80
2018-05-31T00:41:26.842Z,94.50
2018-05-31T00:43:53.481Z,94.50
2018-05-31T00:46:19.716Z,94.30
2018-05-31T00:48:46.749Z,94.80
2018-05-31T00:51:13.032Z,94.40
2018-05-31T00:53:39.351Z,94.70
2018-05-31T00:56:15.732Z,94.70
2018-05-31T00:58:42.071Z,94.60
2018-05-31T01:01:08.359Z,94.60
2018-05-31T01:03:34.631Z,94.70
2018-05-31T01:06:01.683Z,94.60
2018-05-31T01:08:28.339Z,94.60
2018-05-31T01:10:54.684Z,94.30
2018-05-31T01:13:20.982Z,93.60
2018-05-31T01:15:48.032Z,93.70
2018-05-31T01:18:14.339Z,93.70
2018-05-31T01:20:41.432Z,93.60
2018-05-31T01:23:08.517Z,93.80
2018-05-31T01:25:35.197Z,93.50
2018-05-31T01:28:01.882Z,93.40
2018-05-31T01:30:28.921Z,93.80
2018-05-31T01:32:55.595Z,94.20
2018-05-31T01:35:21.886Z,93.80
2018-05-31T01:37:48.205Z,93.10
2018-05-31T01:40:14.522Z,94.20
2018-05-31T01:42:40.783Z,94.30
2018-05-31T01:45:07.782Z,94.00
2018-05-31T01:47:34.147Z,94.00
2018-05-31T01:50:00.782Z,94.30
2018-05-31T01:52:27.117Z,94.20
2018-05-31T01:54:53.348Z,94.80
2018-05-31T01:57:20.023Z,94.30
2018-05-31T01:59:47.007Z,94.30
2018-05-31T02:02:13.300Z,94.00
2018-05-31T02:04:39.586Z,94.40
2018-05-31T02:07:05.914Z,94.40
2018-05-31T02:09:32.569Z,94.30
2018-05-31T02:11:58.874Z,94.40
2018-05-31T02:14:25.122Z,94.10
2018-05-31T02:16:51.372Z,94.50
2018-05-31T02:19:17.683Z,94.30
2018-05-31T02:21:44.298Z,94.60
2018-05-31T02:24:11.681Z,94.80
2018-05-31T02:26:37.947Z,95.10
2018-05-31T02:29:04.668Z,94.60
2018-05-31T02:31:30.899Z,94.70
2018-05-31T02:33:57.209Z,94.30
2018-05-31T02:36:23.448Z,94.80
2018-05-31T02:41:17.677Z,95.20
2018-05-31T02:43:43.939Z,95.10
2018-05-31T02:46:10.222Z,94.30
2018-05-31T02:48:37.247Z,94.70
2018-05-31T02:51:04.318Z,95.40
2018-05-31T02:53:31.324Z,95.50
2018-05-31T02:55:57.614Z,95.30
2018-05-31T02:58:24.597Z,95.30
2018-05-31T03:00:51.252Z,95.20
2018-05-31T03:03:17.488Z,95.20
2018-05-31T03:05:43.792Z,95.20
2018-05-31T03:08:10.047Z,95.20
2018-05-31T03:10:37.053Z,95.50
2018-05-31T03:13:03.368Z,95.50
2018-05-31T03:15:30.413Z,95.60
2018-05-31T03:17:57.042Z,95.00
2018-05-31T03:20:23.367Z,94.80
2018-05-31T03:22:49.990Z,94.90
2018-05-31T03:25:17.015Z,94.90
2018-05-31T03:27:43.274Z,94.80
2018-05-31T03:30:10.257Z,95.60
2018-05-31T03:32:37.263Z,95.70
2018-05-31T03:35:03.885Z,95.60
2018-05-31T03:37:30.217Z,95.40
2018-05-31T03:39:56.457Z,95.60
2018-05-31T03:42:23.167Z,94.90
2018-05-31T03:44:49.451Z,95.10
2018-05-31T03:47:15.758Z,95.30
2018-05-31T03:49:42.762Z,95.40
2018-05-31T03:52:09.832Z,96.00
2018-05-31T03:54:36.113Z,96.00
2018-05-31T03:57:02.473Z,95.80
2018-05-31T03:59:28.762Z,95.30
2018-05-31T04:01:55.779Z,94.90
2018-05-31T04:04:22.823Z,94.90
2018-05-31T04:06:49.933Z,95.10
2018-05-31T04:09:16.583Z,95.00
2018-05-31T04:11:42.849Z,95.00
2018-05-31T04:14:09.109Z,94.70
2018-05-31T04:16:36.079Z,95.10
2018-05-31T04:19:02.394Z,95.10
2018-05-31T04:21:29.433Z,95.40
2018-05-31T04:23:56.069Z,95.00
2018-05-31T04:26:22.339Z,95.20
2018-05-31T04:28:49.363Z,95.70
2018-05-31T04:31:15.639Z,95.60
2018-05-31T04:33:41.941Z,95.50
2018-05-31T04:36:08.507Z,95.40
2018-05-31T04:38:35.489Z,95.70
2018-05-31T04:41:02.504Z,95.70
2018-05-31T04:43:29.504Z,96.20
2018-05-31T04:45:55.784Z,96.00
2018-05-31T04:48:22.060Z,95.90
2018-05-31T04:50:48.375Z,95.90
2018-05-31T04:53:14.983Z,95.80
2018-05-31T04:55:41.284Z,96.00
2018-05-31T04:58:08.268Z,95.90
2018-05-31T05:00:34.569Z,96.10
2018-05-31T05:03:01.529Z,95.90
2018-05-31T05:05:27.815Z,96.00
2018-05-31T05:07:54.902Z,95.80
2018-05-31T05:10:21.225Z,95.80
2018-05-31T05:12:48.234Z,96.00
2018-05-31T05:15:14.524Z,95.90
2018-05-31T05:17:40.779Z,96.00
2018-05-31T05:20:08.175Z,96.70
2018-05-31T05:22:34.470Z,96.20
2018-05-31T05:25:00.780Z,96.10
2018-05-31T05:27:27.832Z,96.30
2018-05-31T05:29:54.818Z,96.30
2018-05-31T05:32:21.068Z,95.80
2018-05-31T05:34:47.299Z,95.90
2018-05-31T05:37:13.911Z,95.90
2018-05-31T05:39:40.548Z,95.90
2018-05-31T05:42:07.548Z,95.70
2018-05-31T05:44:33.789Z,95.70
2018-05-31T05:47:00.045Z,95.60
2018-05-31T05:49:26.283Z,95.50
2018-05-31T05:51:52.551Z,95.60
2018-05-31T05:54:19.545Z,95.80
2018-05-31T05:56:45.785Z,95.50
2018-05-31T05:59:12.801Z,95.20
2018-05-31T06:01:39.112Z,95.20
2018-05-31T06:04:06.179Z,95.30
2018-05-31T06:06:32.399Z,95.30
2018-05-31T06:08:59.419Z,95.50
2018-05-31T06:11:26.379Z,95.50
2018-05-31T06:13:53.030Z,94.90
2018-05-31T06:16:19.296Z,94.70
2018-05-31T06:18:46.284Z,94.70
2018-05-31T06:21:12.539Z,94.20
2018-05-31T06:23:38.784Z,94.20
2018-05-31T06:26:06.529Z,93.20
2018-05-31T06:28:32.779Z,93.00
2018-05-31T06:30:59.059Z,92.70
2018-05-31T06:33:25.730Z,92.30
2018-05-31T06:35:52.411Z,91.40
2018-05-31T06:38:19.408Z,92.40
2018-05-31T06:40:46.453Z,92.40
2018-05-31T06:43:12.679Z,92.50
2018-05-31T06:45:38.972Z,92.00
2018-05-31T06:48:05.625Z,92.10
2018-05-31T06:50:31.888Z,92.20
2018-05-31T06:52:58.171Z,91.90
2018-05-31T06:55:24.795Z,92.20
2018-05-31T06:57:51.844Z,91.30
2018-05-31T07:00:18.135Z,89.30
2018-05-31T07:02:44.457Z,91.00
2018-05-31T07:05:11.060Z,91.00
2018-05-31T07:07:37.730Z,88.10
2018-05-31T07:10:04.072Z,90.40
2018-05-31T07:12:31.111Z,89.10
2018-05-31T07:14:58.129Z,89.50
2018-05-31T07:17:24.415Z,88.50
2018-05-31T07:19:50.680Z,87.90
2018-05-31T07:22:17.741Z,84.30
2018-05-31T07:24:43.996Z,84.50
2018-05-31T07:27:10.341Z,85.40
2018-05-31T07:29:36.607Z,84.50
2018-05-31T07:32:02.894Z,86.60
2018-05-31T07:34:29.559Z,85.50
2018-05-31T07:36:55.864Z,86.70
2018-05-31T07:39:22.165Z,84.70
2018-05-31T07:41:48.462Z,83.20
2018-05-31T07:44:14.828Z,86.60
2018-05-31T07:46:41.086Z,81.40
2018-05-31T07:49:07.406Z,83.10
2018-05-31T07:51:34.424Z,86.70
2018-05-31T07:54:00.720Z,81.90
2018-05-31T07:56:27.358Z,83.60
2018-05-31T07:58:53.656Z,81.30
2018-05-31T08:01:20.314Z,81.70
2018-05-31T08:03:47.287Z,80.50
2018-05-31T08:06:13.571Z,82.80
2018-05-31T08:08:40.370Z,82.10
2018-05-31T08:11:06.691Z,80.10
2018-05-31T08:13:33.754Z,83.30
2018-05-31T08:16:00.780Z,80.50
2018-05-31T08:18:27.046Z,77.70
2018-05-31T08:20:53.291Z,77.20
2018-05-31T08:23:19.974Z,75.60
2018-05-31T08:25:46.240Z,78.00
2018-05-31T08:28:12.532Z,78.20
2018-05-31T08:30:39.769Z,76.70
2018-05-31T08:33:06.076Z,75.80
2018-05-31T08:35:33.114Z,80.10
2018-05-31T08:37:59.390Z,75.90
2018-05-31T08:40:26.111Z,77.10
2018-05-31T08:42:53.172Z,78.20
2018-05-31T08:45:20.134Z,75.30
2018-05-31T08:47:47.181Z,77.10
2018-05-31T08:50:14.170Z,77.50
2018-05-31T08:52:41.191Z,75.10
2018-05-31T08:55:08.167Z,75.60
2018-05-31T08:57:34.422Z,74.40
2018-05-31T09:00:00.673Z,75.60
2018-05-31T09:02:26.928Z,74.50
2018-05-31T09:04:54.000Z,76.30
2018-05-31T09:07:21.002Z,71.30
2018-05-31T09:09:47.265Z,67.70
2018-05-31T09:12:13.529Z,68.70
2018-05-31T09:14:40.219Z,72.00
2018-05-31T09:17:06.460Z,70.80
2018-05-31T09:19:33.097Z,73.60
2018-05-31T09:21:59.402Z,70.00
2018-05-31T09:24:26.392Z,75.20
2018-05-31T09:26:52.700Z,72.20
2018-05-31T09:29:18.960Z,74.20
2018-05-31T09:31:45.295Z,69.00
2018-05-31T09:34:11.532Z,68.10
2018-05-31T09:36:37.871Z,69.80
2018-05-31T09:39:05.436Z,66.60
2018-05-31T09:41:31.754Z,67.00
2018-05-31T09:43:58.059Z,66.60
2018-05-31T09:46:25.150Z,63.80
2018-05-31T09:48:51.495Z,65.90
2018-05-31T09:51:17.771Z,66.80
2018-05-31T09:53:44.042Z,64.90
2018-05-31T09:56:10.339Z,59.80
2018-05-31T09:58:36.582Z,58.30
2018-05-31T10:01:03.260Z,59.50
2018-05-31T10:03:29.529Z,56.90
2018-05-31T10:05:55.795Z,54.80
2018-05-31T10:08:22.043Z,56.40
2018-05-31T10:10:49.125Z,57.40
2018-05-31T10:13:15.472Z,54.60
2018-05-31T10:15:43.640Z,52.30
2018-05-31T10:18:09.966Z,55.10
2018-05-31T10:20:36.952Z,56.10
2018-05-31T10:23:03.241Z,51.70
2018-05-31T10:25:29.528Z,51.00
2018-05-31T10:27:56.485Z,58.20
2018-05-31T10:30:22.792Z,55.10
2018-05-31T10:32:49.404Z,62.20
2018-05-31T10:35:15.707Z,58.20
2018-05-31T10:37:41.961Z,60.60
2018-05-31T10:40:08.237Z,60.00
2018-05-31T10:42:34.986Z,59.50
2018-05-31T10:45:09.626Z,62.00
2018-05-31T10:47:36.336Z,60.70
2018-05-31T10:50:03.432Z,61.00
2018-05-31T10:52:30.057Z,57.80
2018-05-31T10:54:57.091Z,60.20
2018-05-31T10:57:24.082Z,58.50
2018-05-31T10:59:50.373Z,58.90
2018-05-31T11:02:16.651Z,62.60
2018-05-31T11:04:42.892Z,62.30
2018-05-31T11:07:09.178Z,64.70
2018-05-31T11:09:35.433Z,65.70
2018-05-31T11:12:02.108Z,64.90
2018-05-31T11:14:28.346Z,65.50
2018-05-31T11:16:54.638Z,66.80
2018-05-31T11:19:20.894Z,65.40
2018-05-31T11:21:47.908Z,67.20
2018-05-31T11:24:14.192Z,65.50
2018-05-31T11:26:40.749Z,66.60
2018-05-31T11:29:06.991Z,65.90
2018-05-31T11:31:33.252Z,67.80
2018-05-31T11:33:59.801Z,66.60
2018-05-31T11:36:26.108Z,68.10
2018-05-31T11:38:53.111Z,67.90
2018-05-31T11:41:19.361Z,68.40
2018-05-31T11:43:46.352Z,74.20
2018-05-31T11:46:12.619Z,72.60
2018-05-31T11:48:39.267Z,74.00
2018-05-31T11:51:05.552Z,72.20
2018-05-31T11:53:31.807Z,72.50
2018-05-31T11:55:58.052Z,72.00
2018-05-31T11:58:24.292Z,70.40
2018-05-31T12:00:50.532Z,71.20
2018-05-31T12:03:16.832Z,65.50
2018-05-31T12:05:43.124Z,61.20
2018-05-31T12:08:09.421Z,67.60
2018-05-31T12:10:36.444Z,63.30
2018-05-31T12:13:03.463Z,66.50
2018-05-31T12:15:29.756Z,65.00
2018-05-31T12:17:56.072Z,67.80
2018-05-31T12:20:23.083Z,70.80
2018-05-31T12:22:49.356Z,68.60
2018-05-31T12:25:16.372Z,70.10
2018-05-31T12:27:42.658Z,69.80
2018-05-31T12:30:08.985Z,68.00
2018-05-31T12:32:35.990Z,70.10
2018-05-31T12:37:43.616Z,68.10
2018-05-31T12:40:10.626Z,65.00
2018-05-31T12:42:36.911Z,62.60
2018-05-31T12:45:03.212Z,60.60
2018-05-31T12:47:29.484Z,64.70
2018-05-31T12:49:55.773Z,55.80
2018-05-31T12:52:22.094Z,56.50
2018-05-31T12:54:48.368Z,54.40
2018-05-31T12:57:14.623Z,55.20
2018-05-31T12:59:40.871Z,54.10
2018-05-31T13:02:07.197Z,52.90
2018-05-31T13:04:33.418Z,53.50
2018-05-31T13:06:59.693Z,50.00
2018-05-31T13:09:26.664Z,49.30
2018-05-31T13:11:52.991Z,47.50
2018-05-31T13:14:19.991Z,48.80
2018-05-31T13:16:46.265Z,51.10
2018-05-31T13:19:12.574Z,49.30
2018-05-31T13:21:38.826Z,52.70
2018-05-31T13:24:05.187Z,49.50
2018-05-31T13:26:32.176Z,51.60
2018-05-31T13:28:58.457Z,49.80
2018-05-31T13:31:25.122Z,48.80
2018-05-31T13:33:52.117Z,46.70
2018-05-31T13:36:18.390Z,46.50
2018-05-31T13:38:44.674Z,44.40
2018-05-31T13:41:10.973Z,44.90
2018-05-31T13:43:37.251Z,46.30
2018-05-31T13:46:04.702Z,47.50
2018-05-31T13:48:30.968Z,45.30
2018-05-31T13:50:57.243Z,43.10
2018-05-31T13:53:24.268Z,45.10
2018-05-31T13:55:50.551Z,43.80
2018-05-31T13:58:17.517Z,48.50
2018-05-31T14:00:43.802Z,48.40
2018-05-31T14:03:10.768Z,53.80
2018-05-31T14:05:36.978Z,54.60
2018-05-31T14:08:03.250Z,54.60
2018-05-31T14:10:30.282Z,54.60
2018-05-31T14:12:56.579Z,52.10
2018-05-31T14:15:22.847Z,52.20
2018-05-31T14:17:49.157Z,54.30
2018-05-31T14:20:15.411Z,57.10
2018-05-31T14:22:41.703Z,61.40
2018-05-31T14:25:07.928Z,61.90
2018-05-31T14:27:34.972Z,64.50
2018-05-31T14:30:01.220Z,66.00
2018-05-31T14:32:28.247Z,68.20
2018-05-31T14:34:54.456Z,68.20
2018-05-31T14:37:20.731Z,68.50
2018-05-31T14:39:46.988Z,66.70
2018-05-31T14:42:13.268Z,65.00
2018-05-31T14:44:39.553Z,65.10
2018-05-31T14:47:06.590Z,64.50
2018-05-31T14:49:32.849Z,66.10
2018-05-31T14:51:59.076Z,68.50
2018-05-31T14:54:26.099Z,69.00
2018-05-31T14:56:52.403Z,69.80
2018-05-31T14:59:18.632Z,66.90
2018-05-31T15:01:44.903Z,65.40
2018-05-31T15:04:11.239Z,67.20
2018-05-31T15:06:37.527Z,60.90
2018-05-31T15:09:04.724Z,61.50
2018-05-31T15:11:31.748Z,64.40
2018-05-31T15:13:58.380Z,61.90
2018-05-31T15:16:24.707Z,62.50
2018-05-31T15:18:51.754Z,66.10
2018-05-31T15:21:18.733Z,66.80
2018-05-31T15:23:44.990Z,69.30
2018-05-31T15:26:11.261Z,67.20
2018-05-31T15:28:37.539Z,64.10
2018-05-31T15:31:03.813Z,64.40
2018-05-31T15:33:30.773Z,64.20
2018-05-31T15:35:57.074Z,66.00
2018-05-31T15:38:23.288Z,68.90
2018-05-31T15:40:50.274Z,70.90
2018-05-31T15:43:16.545Z,70.20
2018-05-31T15:45:42.874Z,69.20
2018-05-31T15:48:09.088Z,72.00
2018-05-31T15:50:35.340Z,74.50
2018-05-31T15:53:01.634Z,72.40
2018-05-31T15:55:28.647Z,74.10
2018-05-31T15:57:54.883Z,72.90
2018-05-31T16:00:21.189Z,73.70
2018-05-31T16:02:47.388Z,74.00
2018-05-31T16:05:13.729Z,75.50
2018-05-31T16:07:39.987Z,73.20
2018-05-31T16:10:06.284Z,75.20
2018-05-31T16:12:33.264Z,75.70
2018-05-31T16:14:59.519Z,75.10
2018-05-31T16:17:26.115Z,75.90
2018-05-31T16:19:53.146Z,76.00
2018-05-31T16:22:22.119Z,75.80
2018-05-31T16:24:54.358Z,76.20
2018-05-31T16:27:28.976Z,77.00
2018-05-31T16:29:57.422Z,77.30
2018-05-31T16:32:24.395Z,75.50
2018-05-31T16:34:51.208Z,75.80
2018-05-31T16:37:17.645Z,76.80
2018-05-31T16:39:43.912Z,76.60
2018-05-31T16:42:10.191Z,76.50
2018-05-31T16:44:36.453Z,76.80
2018-05-31T16:47:02.914Z,74.40
2018-05-31T16:49:29.208Z,74.90
2018-05-31T16:51:55.459Z,75.50
2018-05-31T16:54:21.735Z,74.70
2018-05-31T16:56:48.699Z,76.90
2018-05-31T16:59:15.847Z,76.30
2018-05-31T17:01:42.055Z,76.20
2018-05-31T17:04:08.314Z,77.50
2018-05-31T17:06:34.559Z,77.40
2018-05-31T17:09:01.573Z,80.10
2018-05-31T17:11:27.858Z,78.30
2018-05-31T17:13:54.153Z,79.10
2018-05-31T17:16:20.413Z,79.90
2018-05-31T17:18:47.482Z,80.50
2018-05-31T17:21:14.518Z,80.30
2018-05-31T17:23:41.478Z,81.30
2018-05-31T17:26:08.507Z,80.00
2018-05-31T17:28:34.790Z,80.90
2018-05-31T17:31:01.093Z,81.40
2018-05-31T17:33:27.370Z,79.50
2018-05-31T17:35:53.684Z,79.10
2018-05-31T17:38:20.655Z,82.40
2018-05-31T17:40:47.839Z,81.80
2018-05-31T17:43:14.125Z,81.30
2018-05-31T17:45:41.198Z,82.40
2018-05-31T17:48:07.578Z,82.30
2018-05-31T17:50:33.790Z,82.40
2018-05-31T17:53:00.054Z,84.70
2018-05-31T17:55:26.321Z,83.90
2018-05-31T17:57:53.379Z,84.70
2018-05-31T18:00:20.359Z,83.10
2018-05-31T18:02:46.720Z,82.70
2018-05-31T18:05:13.549Z,83.20
2018-05-31T18:07:39.895Z,82.00
2018-05-31T18:10:06.145Z,81.10
2018-05-31T18:12:33.174Z,82.20
2018-05-31T18:14:59.440Z,82.80
2018-05-31T18:17:25.915Z,82.40
2018-05-31T18:19:52.908Z,83.40
2018-05-31T18:22:19.223Z,81.00
2018-05-31T18:24:45.483Z,80.70
2018-05-31T18:27:11.715Z,80.30
2018-05-31T18:29:38.010Z,81.60
2018-05-31T18:32:05.007Z,83.80
2018-05-31T18:34:31.340Z,82.80
2018-05-31T18:36:58.384Z,84.30
2018-05-31T18:39:24.773Z,83.70
2018-05-31T18:41:51.060Z,82.80
2018-05-31T18:44:17.495Z,84.00
2018-05-31T18:46:43.780Z,84.50
2018-05-31T18:49:11.034Z,86.70
2018-05-31T18:51:37.315Z,85.90
2018-05-31T18:54:04.757Z,86.50
2018-05-31T18:56:31.070Z,85.80
2018-05-31T18:58:57.808Z,86.30
2018-05-31T19:01:25.021Z,86.70
2018-05-31T19:03:52.174Z,86.70
2018-05-31T19:06:19.186Z,87.70
2018-05-31T19:08:45.655Z,86.40
2018-05-31T19:11:12.009Z,84.50
2018-05-31T19:13:44.931Z,84.60
2018-05-31T19:16:11.225Z,84.90
2018-05-31T19:18:44.400Z,87.40
2018-05-31T19:21:10.742Z,87.50
2018-05-31T19:23:37.215Z,88.20
2018-05-31T19:26:03.542Z,86.90
2018-05-31T19:28:30.610Z,87.90
2018-05-31T19:31:03.025Z,87.10
2018-05-31T19:33:30.041Z,87.90
2018-05-31T19:36:02.352Z,88.20
2018-05-31T19:38:29.807Z,88.90
2018-05-31T19:40:56.074Z,90.00
2018-05-31T19:43:28.221Z,90.00
2018-05-31T19:45:54.565Z,90.40
2018-05-31T19:48:21.196Z,90.50
2018-05-31T19:50:47.711Z,91.00
2018-05-31T19:53:20.711Z,91.50
2018-05-31T19:55:47.240Z,91.30
2018-05-31T19:58:20.133Z,91.30
2018-05-31T20:00:52.635Z,91.10
2018-05-31T20:03:25.742Z,91.10
2018-05-31T20:05:52.631Z,91.10
2018-05-31T20:08:19.924Z,91.40
2018-05-31T20:10:46.786Z,91.30
2018-05-31T20:13:13.441Z,91.30
2018-05-31T20:15:39.761Z,91.00
2018-05-31T20:18:06.071Z,91.50
2018-05-31T20:20:32.336Z,91.10
2018-05-31T20:22:58.639Z,91.00
2018-05-31T20:25:25.680Z,91.20
2018-05-31T20:27:52.728Z,91.30
2018-05-31T20:30:20.009Z,91.20
2018-05-31T20:32:46.585Z,91.10
2018-05-31T20:35:12.863Z,90.90
2018-05-31T20:37:39.861Z,91.10
2018-05-31T20:40:06.331Z,91.00
2018-05-31T20:42:32.654Z,91.00
2018-05-31T20:44:59.227Z,91.00
2018-05-31T20:47:26.560Z,91.30
2018-05-31T20:49:52.769Z,91.00
2018-05-31T20:52:19.266Z,91.00
2018-05-31T20:54:45.923Z,91.40
2018-05-31T20:57:12.957Z,91.90
2018-05-31T20:59:39.436Z,91.70
2018-05-31T21:02:06.141Z,92.00
2018-05-31T21:04:32.433Z,92.10
2018-05-31T21:06:58.727Z,92.30
2018-05-31T21:09:25.203Z,92.40
2018-05-31T21:11:52.696Z,92.60
2018-05-31T21:14:19.056Z,92.50
2018-05-31T21:16:45.265Z,92.80
2018-05-31T21:19:11.555Z,92.90
2018-05-31T21:21:38.576Z,93.40
2018-05-31T21:24:04.865Z,93.10
2018-05-31T21:26:31.472Z,93.00
2018-05-31T21:28:57.777Z,92.90
2018-05-31T21:31:24.001Z,93.00
2018-05-31T21:33:50.255Z,93.00
2018-05-31T21:36:17.242Z,93.30
2018-05-31T21:38:45.140Z,93.30
2018-05-31T21:41:11.860Z,93.50
2018-05-31T21:43:38.142Z,93.60
2018-05-31T21:46:04.585Z,90.00
2018-05-31T21:48:31.956Z,85.00
2018-05-31T21:50:58.231Z,85.00
2018-05-31T21:53:24.500Z,83.50
2018-05-31T21:55:50.756Z,80.80
2018-05-31T21:58:17.039Z,78.80
2018-05-31T22:00:49.426Z,78.90
2018-05-31T22:03:16.436Z,79.10
2018-05-31T22:05:42.760Z,76.70
2018-05-31T22:08:09.340Z,76.00
2018-05-31T22:10:36.372Z,77.00
2018-05-31T22:13:02.680Z,77.10
2018-05-31T22:15:28.888Z,77.30
2018-05-31T22:17:55.934Z,77.70
2018-05-31T22:20:22.948Z,78.80
2018-05-31T22:22:49.976Z,80.00
2018-05-31T22:25:16.215Z,83.10
2018-05-31T22:27:42.545Z,87.40
2018-05-31T22:30:08.831Z,89.90
2018-05-31T22:32:35.212Z,90.90
